Time;durP1;ratioP1;P1;durP2;ratioP2;P2;SDS_P1;SDS_P2;PMS_P1;PMS_P2;Temp;Humidity;BMP_temperature;BMP_pressure;BME280_temperature;BME280_humidity;BME280_pressure;Samples;Min_cycle;Max_cycle;Signal;HPM_P1;HPM_P2
2021/12/16 00:08:58;;;;;;;65.97;29.30;;;;;;;8.15;95.83;103334.47;5008558;28;20034;-74
2021/12/16 00:19:33;;;;;;;66.20;30.20;;;;;;;8.14;95.67;103333.56;5003334;28;20117;-74
2021/12/16 00:33:40;;;;;;;54.85;26.42;;;;;;;8.02;95.50;103336.59;5008437;28;20097;-74
2021/12/16 00:36:07;;;;;;;61.78;27.80;;;;;;;8.04;96.03;103334.72;4997265;28;20026;-74
2021/12/16 00:38:34;;;;;;;69.97;28.75;;;;;;;8.05;95.58;103333.78;4999853;28;20412;-72
2021/12/16 00:41:01;;;;;;;59.50;28.63;;;;;;;8.05;95.68;103336.50;4987718;28;20383;-76
2021/12/16 00:43:43;;;;;;;62.72;28.23;;;;;;;8.07;95.84;103341.91;5004744;28;20018;-73
2021/12/16 00:46:17;;;;;;;;;;;;;;;8.10;95.20;103345.41;5001172;28;20034;-76
2021/12/16 00:54:12;;;;;;;60.15;27.20;;;;;;;8.05;95.50;103339.22;5001700;28;20091;-74
2021/12/16 00:56:41;;;;;;;65.18;26.05;;;;;;;8.08;96.04;103336.44;5001750;28;20061;-76
2021/12/16 00:59:09;;;;;;;59.85;27.33;;;;;;;8.08;95.81;103336.44;5007913;28;20022;-74
2021/12/16 01:01:44;;;;;;;60.10;28.98;;;;;;;8.08;96.01;103338.25;5001838;28;20478;-74
2021/12/16 01:04:50;;;;;;;61.35;29.55;;;;;;;8.05;96.27;103333.78;5006720;28;20120;-75
2021/12/16 01:38:11;;;;;;;64.80;27.27;;;;;;;8.06;96.18;103362.66;5007681;28;20040;-73
2021/12/16 01:51:32;;;;;;;59.55;27.08;;;;;;;8.08;95.95;103366.25;5008331;28;20081;-73
2021/12/16 01:57:02;;;;;;;59.20;27.60;;;;;;;8.10;95.90;103371.63;4992959;28;20128;-76
2021/12/16 01:59:34;;;;;;;57.00;28.42;;;;;;;8.09;95.84;103376.16;5007603;28;20105;-74
2021/12/16 02:02:12;;;;;;;58.13;28.20;;;;;;;8.12;96.06;103380.66;5001123;28;20776;-75
2021/12/16 02:04:53;;;;;;;57.55;26.23;;;;;;;8.09;96.02;103376.16;5007451;28;20040;-72
2021/12/16 02:07:51;;;;;;;56.92;27.15;;;;;;;8.09;95.77;103375.28;4993541;28;20124;-74
2021/12/16 02:10:16;;;;;;;57.92;26.40;;;;;;;8.10;96.19;103385.19;4998484;28;20207;-72
2021/12/16 02:29:47;;;;;;;57.38;26.38;;;;;;;8.08;95.85;103385.25;5009260;28;20044;-75
2021/12/16 02:34:24;;;;;;;54.83;28.00;;;;;;;8.08;95.87;103397.91;5001701;28;20062;-74
2021/12/16 02:36:50;;;;;;;55.75;27.25;;;;;;;8.07;96.40;103399.72;5002585;28;20088;-75
2021/12/16 02:39:19;;;;;;;53.97;25.23;;;;;;;8.06;96.25;103395.19;4995036;28;20029;-73
2021/12/16 02:41:48;;;;;;;55.08;27.70;;;;;;;8.07;96.25;103399.72;5007465;28;20112;-76
2021/12/16 02:44:25;;;;;;;57.22;27.38;;;;;;;8.08;95.64;103404.22;5009305;28;20418;-75
2021/12/16 02:49:44;;;;;;;58.35;27.33;;;;;;;8.09;96.00;103411.41;5009669;28;20117;-74
2021/12/16 02:52:10;;;;;;;58.70;26.58;;;;;;;8.06;95.87;103402.44;5010420;28;20490;-75
2021/12/16 02:54:36;;;;;;;54.05;25.65;;;;;;;8.08;96.26;103409.63;5009251;28;20026;-72
2021/12/16 02:57:02;;;;;;;52.88;26.45;;;;;;;8.08;96.29;103400.63;5008910;28;20418;-74
2021/12/16 02:59:29;;;;;;;52.17;26.95;;;;;;;8.09;96.07;103396.97;5010660;28;20080;-72
2021/12/16 03:02:00;;;;;;;54.58;26.33;;;;;;;8.09;96.00;103402.41;5039314;28;20100;-74
2021/12/16 03:04:28;;;;;;;53.03;25.17;;;;;;;8.07;96.09;103399.72;5001837;28;20144;-74
2021/12/16 03:06:57;;;;;;;56.15;25.63;;;;;;;8.07;96.12;103401.53;5008882;28;20037;-75
2021/12/16 03:09:55;;;;;;;51.92;26.15;;;;;;;8.05;96.30;103396.13;4997213;28;20033;-74
2021/12/16 03:15:04;;;;;;;52.15;25.27;;;;;;;8.06;96.19;103394.31;5009580;28;20060;-73
2021/12/16 03:17:39;;;;;;;64.75;27.77;;;;;;;8.07;96.43;103406.97;5007889;28;20034;-74
2021/12/16 03:20:14;;;;;;;52.17;25.65;;;;;;;8.06;96.03;103399.72;5008761;28;20097;-76
2021/12/16 03:22:56;;;;;;;54.90;25.70;;;;;;;8.05;95.81;103395.25;5040831;28;20053;-74
2021/12/16 03:25:33;;;;;;;54.78;25.48;;;;;;;8.05;96.23;103393.44;5007902;28;20034;-75
2021/12/16 03:30:59;;;;;;;51.70;24.13;;;;;;;8.05;95.85;103403.38;4999598;28;20067;-75
2021/12/16 03:39:07;;;;;;;56.10;26.20;;;;;;;8.05;96.44;103415.13;5009287;28;20048;-74
2021/12/16 03:41:33;;;;;;;52.45;26.30;;;;;;;8.05;96.13;103412.41;5005004;28;20030;-76
2021/12/16 03:44:08;;;;;;;57.80;25.67;;;;;;;8.04;95.87;103401.59;5009271;28;20485;-76
2021/12/16 03:46:37;;;;;;;56.45;26.27;;;;;;;8.05;96.17;103411.50;5000170;28;20061;-73
2021/12/16 03:49:07;;;;;;;49.17;26.73;;;;;;;8.04;96.09;103407.03;5008212;28;20495;-76
2021/12/16 03:51:56;;;;;;;52.72;26.10;;;;;;;8.05;96.23;103411.50;5040142;28;20474;-74
2021/12/16 03:54:25;;;;;;;48.55;24.85;;;;;;;8.05;96.63;103419.66;5010401;28;20037;-76
2021/12/16 03:56:53;;;;;;;51.30;25.65;;;;;;;8.02;96.13;103416.97;5005872;28;20041;-75
2021/12/16 03:59:22;;;;;;;50.63;26.75;;;;;;;8.02;96.15;103430.53;5007852;28;20030;-73
2021/12/16 04:01:48;;;;;;;55.20;25.67;;;;;;;8.03;96.26;103429.66;4999773;28;20026;-74
2021/12/16 04:04:14;;;;;;;55.03;25.90;;;;;;;8.01;96.22;103429.66;5007236;28;20100;-75
2021/12/16 04:06:39;;;;;;;52.58;26.33;;;;;;;8.03;96.11;103427.81;5008795;28;20104;-74
2021/12/16 04:09:09;;;;;;;49.80;25.50;;;;;;;8.02;96.34;103427.81;4998490;28;20026;-75
2021/12/16 04:11:40;;;;;;;53.90;25.67;;;;;;;8.01;96.30;103424.22;5001669;28;20025;-76
2021/12/16 04:14:09;;;;;;;49.40;25.13;;;;;;;8.01;95.94;103432.34;5008708;28;20025;-74
2021/12/16 04:16:40;;;;;;;52.53;25.75;;;;;;;7.96;96.52;103426.13;5005027;28;20109;-74
2021/12/16 04:19:12;;;;;;;56.55;26.75;;;;;;;7.95;96.28;103418.94;5007393;28;20179;-76
2021/12/16 04:21:42;;;;;;;49.67;25.88;;;;;;;7.98;96.18;103421.59;5006836;28;20065;-74
2021/12/16 04:24:07;;;;;;;49.58;25.80;;;;;;;7.97;96.03;103429.75;5006947;28;20018;-74
2021/12/16 04:26:36;;;;;;;55.63;26.80;;;;;;;7.94;96.53;103419.88;5001167;28;20033;-73
2021/12/16 04:29:03;;;;;;;59.88;24.58;;;;;;;7.93;96.53;103420.81;5032286;28;20151;-74
2021/12/16 04:31:30;;;;;;;58.08;25.27;;;;;;;7.92;96.56;103419.00;4999176;28;20770;-72
2021/12/16 04:33:55;;;;;;;47.88;24.08;;;;;;;7.90;96.09;103421.75;5008156;28;20021;-74
2021/12/16 04:36:21;;;;;;;53.60;26.35;;;;;;;7.87;96.42;103416.38;4996138;28;20113;-73
2021/12/16 04:38:47;;;;;;;54.78;25.15;;;;;;;7.85;96.37;103411.94;5007522;28;20030;-74
2021/12/16 04:41:14;;;;;;;51.90;24.95;;;;;;;7.82;96.26;103411.97;4987866;28;20042;-72
2021/12/16 04:43:44;;;;;;;52.20;25.02;;;;;;;7.78;96.55;103412.94;4988401;28;20133;-75
2021/12/16 04:46:15;;;;;;;49.47;24.42;;;;;;;7.72;96.39;103413.09;4989335;28;20038;-75
2021/12/16 04:48:42;;;;;;;56.08;25.77;;;;;;;7.69;96.74;103405.88;5002361;28;20544;-76
2021/12/16 04:51:09;;;;;;;54.60;26.35;;;;;;;7.66;96.56;103415.00;5019173;28;20523;-76
2021/12/16 04:53:36;;;;;;;54.75;25.70;;;;;;;7.61;96.22;103416.91;4988291;28;20026;-77
2021/12/16 04:56:02;;;;;;;49.33;25.38;;;;;;;7.59;96.16;103420.53;4986637;28;20080;-76
2021/12/16 04:58:29;;;;;;;51.88;24.15;;;;;;;7.53;96.18;103420.66;4995726;28;20025;-73
2021/12/16 05:00:54;;;;;;;48.47;25.58;;;;;;;7.49;96.49;103425.22;4988354;28;20089;-76
2021/12/16 05:03:21;;;;;;;48.60;24.42;;;;;;;7.43;96.36;103419.06;4988650;28;20035;-76
2021/12/16 05:05:46;;;;;;;55.78;25.90;;;;;;;7.41;96.64;103419.97;4988014;28;20026;-75
2021/12/16 05:08:12;;;;;;;51.17;25.40;;;;;;;7.39;96.57;103416.38;4992574;28;20133;-75
2021/12/16 05:10:37;;;;;;;51.22;24.67;;;;;;;7.35;96.60;103416.47;4995509;28;20072;-74
2021/12/16 05:13:04;;;;;;;55.85;28.00;;;;;;;7.34;96.97;103418.28;5006652;28;20071;-72
2021/12/16 05:15:34;;;;;;;55.25;27.73;;;;;;;7.30;96.83;103427.38;5007422;28;20025;-76
2021/12/16 05:18:03;;;;;;;51.72;24.52;;;;;;;7.27;97.19;103426.53;5004798;28;20035;-73
2021/12/16 05:20:33;;;;;;;55.30;27.17;;;;;;;7.21;97.02;103418.53;5007764;28;20453;-74
2021/12/16 05:28:29;;;;;;;43.70;22.48;;;;;;;7.06;96.93;103427.78;5006209;28;20048;-73
2021/12/16 05:30:55;;;;;;;52.38;23.50;;;;;;;7.03;97.20;103438.66;5003129;28;20021;-76
2021/12/16 05:33:22;;;;;;;50.63;23.58;;;;;;;6.99;97.27;103443.22;5002248;28;20037;-76
2021/12/16 05:35:48;;;;;;;47.10;22.92;;;;;;;6.93;96.91;103440.63;5002855;28;20037;-73
2021/12/16 05:38:14;;;;;;;34.38;18.83;;;;;;;6.85;95.95;103443.47;5007233;28;20352;-74
2021/12/16 05:40:39;;;;;;;44.15;21.90;;;;;;;6.79;95.99;103437.22;5005482;28;20076;-75
2021/12/16 05:43:08;;;;;;;35.35;18.05;;;;;;;6.70;95.85;103438.25;5007325;28;20417;-73
2021/12/16 05:45:34;;;;;;;37.63;16.90;;;;;;;6.62;96.18;103450.97;5010872;28;20033;-74
2021/12/16 05:48:03;;;;;;;52.17;24.05;;;;;;;6.63;97.47;103455.50;5000435;28;20061;-76
2021/12/16 05:50:30;;;;;;;50.35;23.15;;;;;;;6.63;97.75;103461.81;5011110;28;20056;-75
2021/12/16 05:52:56;;;;;;;55.53;24.75;;;;;;;6.62;97.47;103454.63;5004611;28;20465;-76
2021/12/16 05:55:22;;;;;;;41.72;20.80;;;;;;;6.54;96.55;103452.94;5009912;28;20114;-74
2021/12/16 05:57:49;;;;;;;33.15;17.70;;;;;;;6.43;96.13;103461.16;5009032;28;20473;-74
2021/12/16 06:00:21;;;;;;;32.92;17.85;;;;;;;6.34;95.71;103467.63;5009713;28;20395;-76
2021/12/16 06:02:47;;;;;;;22.42;13.20;;;;;;;6.18;95.07;103449.78;5009318;28;20072;-75
2021/12/16 06:05:14;;;;;;;26.73;12.05;;;;;;;6.17;95.62;103474.13;5010744;28;20461;-75
2021/12/16 06:07:39;;;;;;;101.57;21.20;;;;;;;6.13;97.08;103475.97;5007657;28;20394;-76
2021/12/16 06:10:07;;;;;;;60.78;13.65;;;;;;;6.09;95.69;103488.63;4996628;28;20025;-73
2021/12/16 06:12:33;;;;;;;56.58;22.30;;;;;;;6.11;96.89;103481.41;5007735;28;20026;-77
2021/12/16 06:15:17;;;;;;;31.60;15.63;;;;;;;6.06;96.54;103474.22;5009219;28;20031;-74
2021/12/16 06:26:29;;;;;;;31.75;14.05;;;;;;;5.87;96.37;103482.53;4998885;28;20050;-73
2021/12/16 06:28:46;;;;;;;81.03;16.58;;;;;;;5.69;95.86;103493.53;5010945;28;20083;-75
2021/12/16 06:31:12;;;;;;;31.05;14.45;;;;;;;5.62;95.40;103492.66;5008736;28;20117;-76
2021/12/16 06:33:38;;;;;;;24.58;13.98;;;;;;;5.53;95.70;103483.75;5010715;28;20098;-76
2021/12/16 06:36:03;;;;;;;29.85;14.18;;;;;;;5.50;95.21;103492.78;5010203;28;20064;-73
2021/12/16 06:38:28;;;;;;;48.20;14.68;;;;;;;5.42;95.34;103499.16;5042345;28;20033;-75
2021/12/16 06:40:56;;;;;;;62.47;14.43;;;;;;;5.32;95.18;103499.22;4998934;28;20057;-75
2021/12/16 06:43:23;;;;;;;32.33;13.20;;;;;;;5.24;95.65;103498.38;5009747;28;20120;-76
2021/12/16 06:45:51;;;;;;;19.33;12.30;;;;;;;5.24;95.60;103500.19;5003321;28;20034;-76
2021/12/16 06:48:21;;;;;;;17.27;11.57;;;;;;;5.18;95.01;103492.16;4990918;28;20019;-76
2021/12/16 06:50:55;;;;;;;20.77;11.43;;;;;;;5.12;95.11;103496.66;4990113;28;20085;-73
2021/12/16 06:53:30;;;;;;;63.92;12.15;;;;;;;5.05;95.11;103488.63;5000209;28;20049;-75
2021/12/16 06:56:22;;;;;;;23.08;11.25;;;;;;;4.96;94.97;103489.59;4989965;28;20743;-76
2021/12/16 06:58:48;;;;;;;58.17;11.32;;;;;;;4.91;94.64;103506.72;4989310;28;20042;-76
2021/12/16 07:01:30;;;;;;;;;;;;;;;4.89;95.06;103503.13;4990856;28;20514;-76
2021/12/16 07:03:55;;;;;;;33.28;10.05;;;;;;;4.79;95.17;103507.66;4995957;28;19961;-75
2021/12/16 07:06:25;;;;;;;92.70;14.40;;;;;;;4.74;95.75;103505.00;4990385;28;20506;-73
2021/12/16 07:08:55;;;;;;;63.40;12.25;;;;;;;4.73;94.93;103518.50;5025155;28;21538;-76
2021/12/16 07:11:21;;;;;;;176.55;19.92;;;;;;;4.63;96.42;103503.28;5001836;28;20026;-73
2021/12/16 07:13:56;;;;;;;28.40;11.82;;;;;;;4.67;95.93;103516.72;5008306;28;20141;-75
2021/12/16 07:16:22;;;;;;;30.65;11.57;;;;;;;4.65;95.54;103529.31;4991296;28;20034;-75
2021/12/16 07:18:48;;;;;;;61.70;15.63;;;;;;;4.61;96.36;103531.09;5008237;28;20026;-75
2021/12/16 07:21:13;;;;;;;50.28;12.93;;;;;;;4.59;95.80;103529.34;5033258;28;20030;-75
2021/12/16 07:23:39;;;;;;;35.50;11.38;;;;;;;4.50;95.35;103514.09;4989959;28;20041;-73
2021/12/16 07:26:04;;;;;;;30.17;10.93;;;;;;;4.52;95.53;103539.28;4988310;28;20054;-76
2021/12/16 07:28:29;;;;;;;92.40;14.00;;;;;;;4.52;95.79;103546.44;5005001;28;20121;-73
2021/12/16 07:30:55;;;;;;;32.08;11.77;;;;;;;4.48;95.18;103548.28;4989390;28;20041;-74
2021/12/16 07:33:20;;;;;;;27.15;11.52;;;;;;;4.43;95.75;103555.47;4990377;28;20026;-75
2021/12/16 07:35:46;;;;;;;71.05;12.68;;;;;;;4.35;95.35;103565.38;5001753;28;20109;-75
2021/12/16 07:38:12;;;;;;;60.90;13.65;;;;;;;4.32;95.90;103566.25;4996944;28;20041;-76
2021/12/16 07:40:40;;;;;;;54.05;13.95;;;;;;;4.28;95.49;103564.47;5006885;28;20060;-75
2021/12/16 07:45:41;;;;;;;35.90;12.63;;;;;;;4.21;95.36;103576.19;5006322;28;20057;-75
2021/12/16 07:48:07;;;;;;;45.63;11.98;;;;;;;4.13;94.92;103585.16;5004658;28;20025;-74
2021/12/16 07:50:33;;;;;;;57.22;14.40;;;;;;;4.11;95.78;103581.59;5000964;28;20421;-74
2021/12/16 07:52:59;;;;;;;27.25;13.48;;;;;;;4.09;95.92;103585.16;5005912;28;20063;-73
2021/12/16 07:55:24;;;;;;;42.03;13.45;;;;;;;4.06;94.87;103601.34;4993803;28;20025;-75
2021/12/16 07:57:49;;;;;;;72.22;14.30;;;;;;;4.00;95.27;103608.53;5003562;28;20030;-76
2021/12/16 08:00:20;;;;;;;42.35;14.77;;;;;;;3.99;95.90;103615.72;4988484;28;20410;-76
2021/12/16 08:02:45;;;;;;;41.05;15.95;;;;;;;3.98;95.80;103615.72;4995332;28;20427;-75
2021/12/16 08:05:12;;;;;;;30.80;16.20;;;;;;;3.98;95.72;103610.34;4993456;28;20037;-75
2021/12/16 08:07:38;;;;;;;44.90;17.55;;;;;;;4.01;95.66;103618.38;4989206;28;20026;-76
2021/12/16 08:10:08;;;;;;;35.17;13.35;;;;;;;4.01;95.57;103615.69;4993740;28;20028;-73
2021/12/16 08:12:34;;;;;;;65.68;18.77;;;;;;;4.00;96.37;103619.28;5007615;28;20037;-76
2021/12/16 08:14:59;;;;;;;35.22;15.77;;;;;;;4.00;95.76;103627.38;5003297;28;20021;-75
2021/12/16 08:17:25;;;;;;;39.63;14.32;;;;;;;3.95;95.26;103616.59;5003567;28;20044;-76
2021/12/16 08:19:50;;;;;;;26.80;12.90;;;;;;;3.96;95.34;103623.78;5006746;28;20033;-75
2021/12/16 08:22:16;;;;;;;59.20;15.35;;;;;;;3.93;95.46;103633.69;5007893;28;20022;-76
2021/12/16 08:24:41;;;;;;;72.05;15.13;;;;;;;3.90;95.46;103637.25;4992978;28;20037;-74
2021/12/16 08:27:08;;;;;;;50.10;15.10;;;;;;;3.91;96.09;103628.28;5007265;28;20136;-75
2021/12/16 08:29:34;;;;;;;62.83;15.05;;;;;;;3.94;95.69;103644.44;5008494;28;20030;-75
2021/12/16 08:31:59;;;;;;;60.22;14.15;;;;;;;3.94;95.76;103641.75;4994258;28;20408;-73
2021/12/16 08:34:27;;;;;;;63.65;17.00;;;;;;;3.97;96.04;103649.84;4997096;28;20025;-75
2021/12/16 08:36:52;;;;;;;53.03;15.98;;;;;;;4.00;96.03;103646.22;5008365;28;20427;-75
2021/12/16 08:39:18;;;;;;;49.83;15.80;;;;;;;4.00;96.02;103639.03;5004076;28;20454;-75
2021/12/16 08:41:49;;;;;;;81.43;16.13;;;;;;;3.97;95.65;103641.75;4999709;28;20034;-75
2021/12/16 08:44:16;;;;;;;50.90;15.02;;;;;;;3.98;96.08;103648.94;5000641;28;20034;-76
2021/12/16 08:46:46;;;;;;;54.45;13.95;;;;;;;4.00;95.77;103641.75;4998330;28;20057;-76
2021/12/16 08:49:11;;;;;;;36.47;14.48;;;;;;;4.02;95.79;103650.72;5007872;28;20120;-73
2021/12/16 08:51:43;;;;;;;66.38;16.50;;;;;;;4.04;95.78;103664.19;5005458;28;20589;-76
2021/12/16 08:54:08;;;;;;;45.65;16.05;;;;;;;4.02;95.72;103664.19;5034563;28;20021;-75
2021/12/16 08:56:35;;;;;;;35.17;16.80;;;;;;;4.07;96.11;103667.78;4989344;28;20069;-76
2021/12/16 08:59:03;;;;;;;37.05;16.98;;;;;;;4.09;95.91;103674.06;5005542;28;20030;-75
2021/12/16 09:01:31;;;;;;;54.83;19.42;;;;;;;4.12;96.13;103686.66;5001191;28;20034;-73
2021/12/16 09:03:57;;;;;;;37.25;16.42;;;;;;;4.14;96.51;103684.84;5007226;28;20029;-76
2021/12/16 09:06:23;;;;;;;29.80;17.92;;;;;;;4.22;96.33;103687.53;5005451;28;20032;-75
2021/12/16 09:08:52;;;;;;;40.50;19.15;;;;;;;4.21;96.40;103680.38;5000454;28;20030;-76
2021/12/16 09:11:21;;;;;;;33.58;17.80;;;;;;;4.32;96.44;103683.94;4999969;28;20441;-75
2021/12/16 09:13:49;;;;;;;35.97;17.80;;;;;;;4.37;96.10;103683.94;5008309;28;20018;-73
2021/12/16 09:16:18;;;;;;;41.53;17.60;;;;;;;4.41;96.24;103677.66;5000833;28;20052;-75
2021/12/16 09:18:43;;;;;;;51.05;19.98;;;;;;;4.47;96.35;103688.41;5006911;28;20476;-73
2021/12/16 09:21:13;;;;;;;43.60;19.35;;;;;;;4.50;96.30;103692.00;5007247;28;20029;-75
2021/12/16 09:23:45;;;;;;;47.38;25.50;;;;;;;4.57;96.54;103691.13;5002113;28;20022;-74
2021/12/16 09:26:11;;;;;;;40.47;21.65;;;;;;;4.60;96.39;103685.69;4986326;28;20444;-75
2021/12/16 09:28:37;;;;;;;55.85;18.98;;;;;;;4.66;95.99;103695.56;4986399;28;20025;-76
2021/12/16 09:31:09;;;;;;;57.20;19.92;;;;;;;4.70;97.06;103686.56;4988633;28;20123;-75
2021/12/16 09:33:35;;;;;;;53.08;22.58;;;;;;;4.74;97.17;103684.78;4991592;28;20097;-75
2021/12/16 09:36:00;;;;;;;44.70;21.27;;;;;;;4.80;97.19;103690.16;4996972;28;20114;-75
2021/12/16 09:38:27;;;;;;;49.60;22.35;;;;;;;4.87;97.47;103689.25;5004134;28;20040;-75
2021/12/16 09:40:55;;;;;;;61.45;25.50;;;;;;;5.00;97.94;103696.41;4996639;28;20030;-75
2021/12/16 09:43:29;;;;;;;52.42;22.77;;;;;;;5.08;97.67;103693.66;4994107;28;20109;-73
2021/12/16 09:45:57;;;;;;;48.78;25.42;;;;;;;5.16;97.71;103701.72;4993396;28;20025;-75
2021/12/16 09:48:24;;;;;;;41.75;23.42;;;;;;;5.25;97.63;103701.69;5005811;28;20030;-73
2021/12/16 09:50:50;;;;;;;34.50;20.92;;;;;;;5.30;97.01;103691.78;5005251;28;20129;-74
2021/12/16 09:53:17;;;;;;;33.47;18.30;;;;;;;5.33;97.26;103699.88;5006347;28;20375;-73
2021/12/16 09:55:44;;;;;;;41.85;23.70;;;;;;;5.44;98.06;103694.41;5003059;28;20029;-73
2021/12/16 09:58:09;;;;;;;30.35;19.35;;;;;;;5.51;97.22;103685.38;4993329;28;20081;-75
2021/12/16 10:00:35;;;;;;;32.60;18.48;;;;;;;5.55;97.39;103688.06;4989112;28;20026;-75
2021/12/16 10:03:02;;;;;;;45.15;23.45;;;;;;;5.68;98.68;103702.38;5005874;28;20433;-76
2021/12/16 10:05:29;;;;;;;58.00;27.88;;;;;;;5.82;98.87;103699.56;5008869;28;20029;-75
2021/12/16 10:07:55;;;;;;;68.18;28.10;;;;;;;6.03;99.17;103690.47;5002297;28;20018;-76
2021/12/16 10:10:24;;;;;;;53.80;27.02;;;;;;;6.10;99.11;103686.78;4996382;28;20041;-76
2021/12/16 10:12:57;;;;;;;60.67;28.10;;;;;;;6.23;99.20;103693.00;5004820;28;20022;-76
2021/12/16 10:18:04;;;;;;;71.65;31.20;;;;;;;6.55;99.58;103696.31;4997960;28;20049;-74
2021/12/16 10:20:38;;;;;;;85.07;34.08;;;;;;;6.72;99.62;103695.25;5003629;28;20029;-76
2021/12/16 10:23:10;;;;;;;94.68;39.40;;;;;;;6.91;100.00;103699.56;4986898;28;20037;-76
2021/12/16 10:25:57;;;;;;;90.95;37.15;;;;;;;7.05;100.00;103693.97;4986996;28;20022;-76
2021/12/16 10:28:26;;;;;;;95.55;36.70;;;;;;;7.16;100.00;103687.50;4988431;28;20022;-76
2021/12/16 10:31:11;;;;;;;105.55;37.10;;;;;;;7.25;100.00;103683.78;4992324;28;20124;-76
2021/12/16 10:33:43;;;;;;;90.55;37.33;;;;;;;7.36;100.00;103681.81;4991247;28;20026;-77
2021/12/16 10:36:27;;;;;;;104.25;39.33;;;;;;;7.49;100.00;103687.09;5021791;28;20026;-76
2021/12/16 10:39:05;;;;;;;108.30;41.42;;;;;;;7.61;100.00;103681.50;5022938;28;20034;-76
2021/12/16 10:41:41;;;;;;;105.53;41.13;;;;;;;7.74;100.00;103685.84;4991282;28;20030;-74
2021/12/16 10:44:18;;;;;;;107.35;39.70;;;;;;;7.85;99.99;103697.38;5042028;28;20052;-74
2021/12/16 10:47:00;;;;;;;80.78;36.45;;;;;;;7.92;99.75;103695.47;5005319;28;20060;-76
2021/12/16 10:49:38;;;;;;;98.95;37.90;;;;;;;8.02;100.00;103697.13;4999194;28;20113;-75
2021/12/16 10:52:22;;;;;;;82.65;35.17;;;;;;;8.10;99.58;103694.28;5030405;28;20073;-75
2021/12/16 10:54:50;;;;;;;80.88;34.65;;;;;;;8.16;99.48;103699.63;5008116;28;20030;-76
2021/12/16 10:57:18;;;;;;;78.95;33.45;;;;;;;8.24;99.29;103696.78;5008047;28;20108;-76
2021/12/16 10:59:51;;;;;;;82.43;36.13;;;;;;;8.34;99.48;103695.69;5008540;28;20052;-74
2021/12/16 11:02:20;;;;;;;76.65;33.00;;;;;;;8.37;99.16;103701.09;4997604;28;20029;-77
2021/12/16 11:05:12;;;;;;;61.13;29.83;;;;;;;8.40;98.79;103707.38;5006263;28;20037;-76
2021/12/16 11:07:41;;;;;;;66.05;32.00;;;;;;;8.49;98.32;103706.31;5009438;28;20053;-76
2021/12/16 11:10:19;;;;;;;58.40;27.85;;;;;;;8.53;98.43;103709.84;4995719;28;20038;-76
2021/12/16 11:12:53;;;;;;;74.13;33.25;;;;;;;8.73;99.25;103704.09;5007639;28;20081;-74
2021/12/16 11:15:42;;;;;;;76.45;32.95;;;;;;;8.74;98.85;103708.59;5004424;28;20042;-76
2021/12/16 11:18:20;;;;;;;66.85;31.67;;;;;;;8.84;98.36;103712.91;5006963;28;20025;-76
2021/12/16 11:21:03;;;;;;;59.50;30.13;;;;;;;8.88;97.84;103711.94;5009941;28;20056;-74
2021/12/16 11:23:40;;;;;;;58.17;30.80;;;;;;;8.99;97.55;103719.84;5009113;28;20018;-76
2021/12/16 11:26:18;;;;;;;85.30;40.42;;;;;;;9.26;98.37;103723.84;4993137;28;20783;-75
2021/12/16 11:28:47;;;;;;;88.72;40.80;;;;;;;9.53;99.15;103714.22;5002867;28;20027;-74
2021/12/16 11:31:20;;;;;;;66.47;32.92;;;;;;;9.64;98.49;103717.56;5000052;28;20141;-76
2021/12/16 11:33:58;;;;;;;76.40;37.30;;;;;;;9.84;99.00;103707.16;4987545;28;20470;-76
2021/12/16 11:36:23;;;;;;;54.85;29.35;;;;;;;9.96;97.24;103704.13;4989917;28;20474;-75
2021/12/16 11:38:50;;;;;;;50.23;25.73;;;;;;;10.03;95.02;103704.91;4996179;28;20088;-75
2021/12/16 11:41:40;;;;;;;41.33;23.50;;;;;;;10.15;94.79;103704.56;5005843;28;20346;-74
2021/12/16 11:44:17;;;;;;;48.42;24.52;;;;;;;10.34;94.90;103705.03;5009054;28;20026;-76
2021/12/16 11:47:04;;;;;;;41.65;21.08;;;;;;;10.45;94.25;103702.94;5007286;28;20029;-74
2021/12/16 11:49:37;;;;;;;44.10;20.85;;;;;;;10.54;92.33;103699.09;5008962;28;20033;-74
2021/12/16 11:52:10;;;;;;;34.08;19.55;;;;;;;10.61;92.83;103697.09;5000512;28;20047;-76
2021/12/16 11:54:41;;;;;;;32.67;18.73;;;;;;;10.66;90.86;103708.75;4994782;28;20080;-74
2021/12/16 11:57:15;;;;;;;35.20;18.55;;;;;;;10.65;90.85;103705.13;5006201;28;20029;-74
2021/12/16 11:59:54;;;;;;;35.35;17.95;;;;;;;10.64;90.34;103689.75;4995843;28;20026;-75
2021/12/16 12:02:34;;;;;;;37.75;18.80;;;;;;;10.62;90.76;103687.97;4997363;28;20030;-75
2021/12/16 12:05:37;;;;;;;29.90;18.15;;;;;;;10.66;91.36;103689.69;5005811;28;20037;-73
2021/12/16 12:08:09;;;;;;;32.28;18.73;;;;;;;10.63;89.09;103687.03;4991119;28;20053;-74
2021/12/16 12:10:50;;;;;;;31.77;17.83;;;;;;;10.57;89.22;103699.00;4996533;28;20033;-76
2021/12/16 12:13:23;;;;;;;36.22;17.73;;;;;;;10.51;89.54;103690.13;5008347;28;20018;-74
2021/12/16 12:16:08;;;;;;;31.90;18.73;;;;;;;10.51;89.59;103690.13;5007237;28;20056;-77
2021/12/16 12:18:43;;;;;;;31.63;18.33;;;;;;;10.48;89.93;103689.25;5007484;28;20065;-74
2021/12/16 12:21:17;;;;;;;30.40;18.20;;;;;;;10.48;89.98;103694.69;5006982;28;20033;-76
2021/12/16 12:23:44;;;;;;;37.97;18.15;;;;;;;10.41;89.91;103690.34;5008478;28;20088;-77
2021/12/16 12:26:16;;;;;;;30.50;18.15;;;;;;;10.36;88.99;103688.69;5005914;28;20119;-75
2021/12/16 12:28:47;;;;;;;32.40;19.83;;;;;;;10.33;89.35;103683.31;5006875;28;20041;-75
2021/12/16 12:31:15;;;;;;;37.38;20.35;;;;;;;10.32;89.33;103682.44;5007277;28;20029;-75
2021/12/16 12:33:41;;;;;;;33.38;18.42;;;;;;;10.33;89.22;103681.50;5008528;28;20026;-76
2021/12/16 12:36:08;;;;;;;31.70;18.25;;;;;;;10.36;89.26;103685.97;5007778;28;20018;-77
2021/12/16 12:38:34;;;;;;;37.42;19.48;;;;;;;10.37;89.39;103682.31;5007055;28;20080;-76
2021/12/16 12:41:00;;;;;;;31.10;18.73;;;;;;;10.35;89.01;103679.63;4991885;28;20482;-76
2021/12/16 12:43:25;;;;;;;37.58;18.13;;;;;;;10.37;88.97;103679.59;5003403;28;20026;-76
2021/12/16 12:45:50;;;;;;;31.27;18.98;;;;;;;10.41;89.32;103681.28;5007203;28;20060;-75
2021/12/16 12:48:18;;;;;;;37.50;18.60;;;;;;;10.43;89.67;103682.13;5005545;28;20026;-74
2021/12/16 12:50:47;;;;;;;31.08;18.02;;;;;;;10.41;89.33;103686.75;5005673;28;20053;-76
2021/12/16 12:53:32;;;;;;;30.38;17.77;;;;;;;10.39;89.30;103684.03;5006442;28;20482;-76
2021/12/16 12:56:19;;;;;;;31.17;18.85;;;;;;;10.41;89.20;103687.63;5006793;28;20498;-76
2021/12/16 12:58:55;;;;;;;34.40;18.45;;;;;;;10.44;89.44;103679.41;5007270;28;20052;-76
2021/12/16 13:01:36;;;;;;;35.55;18.00;;;;;;;10.46;89.52;103673.91;5002288;28;20038;-75
2021/12/16 13:04:09;;;;;;;32.20;18.05;;;;;;;10.48;88.78;103681.06;5001355;28;20487;-74
2021/12/16 13:07:03;;;;;;;29.95;18.50;;;;;;;10.58;90.22;103675.38;5000233;28;20029;-76
2021/12/16 13:09:44;;;;;;;31.60;17.85;;;;;;;10.64;90.02;103675.25;4992401;28;20084;-76
2021/12/16 13:13:00;;;;;;;30.17;16.65;;;;;;;10.70;89.01;103675.94;4994949;28;20028;-76
2021/12/16 13:15:52;;;;;;;29.88;17.73;;;;;;;10.71;87.53;103663.22;5026878;28;20443;-75
2021/12/16 13:26:49;;;;;;;32.17;15.87;;;;;;;11.10;88.67;103666.66;5006872;28;20040;-75
2021/12/16 13:29:38;;;;;;;26.50;15.15;;;;;;;11.23;89.08;103669.88;4991661;28;20939;-73
2021/12/16 13:32:15;;;;;;;26.25;13.88;;;;;;;11.31;86.73;103676.00;4991599;28;20033;-75
2021/12/16 13:35:05;;;;;;;27.88;13.73;;;;;;;11.38;87.33;103671.28;5003302;28;20449;-75
2021/12/16 13:37:39;;;;;;;23.15;13.13;;;;;;;11.43;85.55;103677.50;5006226;28;20030;-75
2021/12/16 13:40:17;;;;;;;26.10;14.48;;;;;;;11.49;85.89;103678.19;5001684;28;20486;-75
2021/12/16 13:42:51;;;;;;;23.30;13.55;;;;;;;11.57;87.00;103671.59;5003794;28;20045;-73
2021/12/16 13:45:26;;;;;;;26.73;13.57;;;;;;;11.60;85.12;103682.41;4995441;28;20022;-75
2021/12/16 13:48:18;;;;;;;24.27;13.45;;;;;;;11.64;84.36;103682.25;5019153;28;20038;-76
2021/12/16 14:00:04;;;;;;;25.92;13.02;;;;;;;11.75;85.26;103674.66;4996436;28;20577;-73
2021/12/16 14:05:31;;;;;;;18.35;9.95;;;;;;;11.66;83.44;103682.22;5007594;28;20556;-74